sensor_id;sensor_type;location;lat;lon;timestamp;pressure;altitude;pressure_sealevel;temperature;humidity
57572;BME280;44459;43.522;24.470;2023-03-04T00:02:21;100383.03;;;5.39;100.00
57572;BME280;44459;43.522;24.470;2023-03-04T00:04:46;100383.16;;;5.44;100.00
57572;BME280;44459;43.522;24.470;2023-03-04T00:07:12;100389.16;;;5.40;100.00
57572;BME280;44459;43.522;24.470;2023-03-04T00:09:42;100389.06;;;5.37;100.00
57572;BME280;44459;43.522;24.470;2023-03-04T00:12:07;100390.84;;;5.38;100.00
57572;BME280;44459;43.522;24.470;2023-03-04T00:14:33;100383.84;;;5.37;100.00
57572;BME280;44459;43.522;24.470;2023-03-04T00:16:58;100380.25;;;5.33;100.00
57572;BME280;44459;43.522;24.470;2023-03-04T00:19:23;100376.91;;;5.39;100.00
57572;BME280;44459;43.522;24.470;2023-03-04T00:21:49;100370.88;;;5.41;100.00
57572;BME280;44459;43.522;24.470;2023-03-04T00:24:14;100378.63;;;5.38;100.00
57572;BME280;44459;43.522;24.470;2023-03-04T00:26:40;100379.41;;;5.34;100.00
57572;BME280;44459;43.522;24.470;2023-03-04T00:29:05;100378.44;;;5.31;100.00
57572;BME280;44459;43.522;24.470;2023-03-04T00:31:30;100370.38;;;5.25;100.00
57572;BME280;44459;43.522;24.470;2023-03-04T00:33:56;100367.81;;;5.26;100.00
57572;BME280;44459;43.522;24.470;2023-03-04T00:36:21;100362.41;;;5.20;100.00
57572;BME280;44459;43.522;24.470;2023-03-04T00:38:47;100353.78;;;5.24;100.00
57572;BME280;44459;43.522;24.470;2023-03-04T00:41:12;100340.84;;;5.29;100.00
57572;BME280;44459;43.522;24.470;2023-03-04T00:43:38;100347.03;;;5.31;100.00
57572;BME280;44459;43.522;24.470;2023-03-04T00:46:03;100344.50;;;5.34;100.00
57572;BME280;44459;43.522;24.470;2023-03-04T00:48:29;100350.56;;;5.33;100.00
57572;BME280;44459;43.522;24.470;2023-03-04T00:50:54;100341.91;;;5.35;100.00
57572;BME280;44459;43.522;24.470;2023-03-04T00:53:20;100348.09;;;5.37;100.00
57572;BME280;44459;43.522;24.470;2023-03-04T00:55:45;100351.75;;;5.44;100.00
57572;BME280;44459;43.522;24.470;2023-03-04T00:58:11;100350.06;;;5.46;100.00
57572;BME280;44459;43.522;24.470;2023-03-04T01:00:36;100353.69;;;5.51;100.00
57572;BME280;44459;43.522;24.470;2023-03-04T01:03:02;100348.53;;;5.54;100.00
57572;BME280;44459;43.522;24.470;2023-03-04T01:05:27;100349.53;;;5.57;100.00
57572;BME280;44459;43.522;24.470;2023-03-04T01:07:52;100350.50;;;5.61;100.00
57572;BME280;44459;43.522;24.470;2023-03-04T01:10:18;100344.31;;;5.59;100.00
57572;BME280;44459;43.522;24.470;2023-03-04T01:12:43;100343.25;;;5.52;100.00
57572;BME280;44459;43.522;24.470;2023-03-04T01:15:10;100340.47;;;5.46;100.00
57572;BME280;44459;43.522;24.470;2023-03-04T01:17:36;100335.28;;;5.48;100.00
57572;BME280;44459;43.522;24.470;2023-03-04T01:20:02;100336.16;;;5.48;100.00
57572;BME280;44459;43.522;24.470;2023-03-04T01:22:28;100339.66;;;5.49;100.00
57572;BME280;44459;43.522;24.470;2023-03-04T01:24:53;100337.31;;;5.58;100.00
57572;BME280;44459;43.522;24.470;2023-03-04T01:27:19;100340.84;;;5.60;100.00
57572;BME280;44459;43.522;24.470;2023-03-04T01:29:44;100350.50;;;5.61;100.00
57572;BME280;44459;43.522;24.470;2023-03-04T01:32:10;100342.72;;;5.64;100.00
57572;BME280;44459;43.522;24.470;2023-03-04T01:34:35;100338.38;;;5.65;100.00
57572;BME280;44459;43.522;24.470;2023-03-04T01:37:01;100339.25;;;5.65;100.00
57572;BME280;44459;43.522;24.470;2023-03-04T01:39:26;100345.28;;;5.63;100.00
57572;BME280;44459;43.522;24.470;2023-03-04T01:41:52;100336.56;;;5.62;100.00
57572;BME280;44459;43.522;24.470;2023-03-04T01:44:17;100333.88;;;5.61;100.00
57572;BME280;44459;43.522;24.470;2023-03-04T01:46:47;100334.72;;;5.59;100.00
57572;BME280;44459;43.522;24.470;2023-03-04T01:49:14;100331.94;;;5.53;100.00
57572;BME280;44459;43.522;24.470;2023-03-04T01:51:43;100329.38;;;5.55;100.00
57572;BME280;44459;43.522;24.470;2023-03-04T01:54:10;100331.13;;;5.54;100.00
57572;BME280;44459;43.522;24.470;2023-03-04T01:56:37;100323.19;;;5.53;100.00
57572;BME280;44459;43.522;24.470;2023-03-04T01:59:10;100327.59;;;5.54;100.00
57572;BME280;44459;43.522;24.470;2023-03-04T02:01:37;100333.66;;;5.51;100.00
57572;BME280;44459;43.522;24.470;2023-03-04T02:04:03;100328.34;;;5.50;100.00
57572;BME280;44459;43.522;24.470;2023-03-04T02:06:29;100327.53;;;5.52;100.00
57572;BME280;44459;43.522;24.470;2023-03-04T02:08:55;100327.47;;;5.49;100.00
57572;BME280;44459;43.522;24.470;2023-03-04T02:11:20;100323.97;;;5.49;100.00
57572;BME280;44459;43.522;24.470;2023-03-04T02:13:46;100330.97;;;5.50;100.00
57572;BME280;44459;43.522;24.470;2023-03-04T02:16:11;100320.34;;;5.44;100.00
57572;BME280;44459;43.522;24.470;2023-03-04T02:18:37;100316.78;;;5.42;100.00
57572;BME280;44459;43.522;24.470;2023-03-04T02:21:13;100317.59;;;5.39;100.00
57572;BME280;44459;43.522;24.470;2023-03-04T02:24:06;100314.16;;;5.42;100.00
57572;BME280;44459;43.522;24.470;2023-03-04T02:26:35;100312.34;;;5.39;100.00
57572;BME280;44459;43.522;24.470;2023-03-04T02:29:02;100308.75;;;5.36;100.00
57572;BME280;44459;43.522;24.470;2023-03-04T02:31:38;100314.06;;;5.37;100.00
57572;BME280;44459;43.522;24.470;2023-03-04T02:34:34;100316.66;;;5.37;100.00
57572;BME280;44459;43.522;24.470;2023-03-04T02:37:01;100323.63;;;5.37;100.00
57572;BME280;44459;43.522;24.470;2023-03-04T02:39:31;100318.41;;;5.37;100.00
57572;BME280;44459;43.522;24.470;2023-03-04T02:41:58;100320.94;;;5.34;100.00
57572;BME280;44459;43.522;24.470;2023-03-04T02:44:29;100326.94;;;5.31;100.00
57572;BME280;44459;43.522;24.470;2023-03-04T02:46:55;100326.91;;;5.30;100.00
57572;BME280;44459;43.522;24.470;2023-03-04T02:49:23;100325.94;;;5.26;100.00
57572;BME280;44459;43.522;24.470;2023-03-04T02:52:07;100325.00;;;5.24;100.00
57572;BME280;44459;43.522;24.470;2023-03-04T02:54:34;100324.13;;;5.24;100.00
57572;BME280;44459;43.522;24.470;2023-03-04T02:57:02;100323.19;;;5.22;100.00
57572;BME280;44459;43.522;24.470;2023-03-04T02:59:28;100310.03;;;5.19;100.00
57572;BME280;44459;43.522;24.470;2023-03-04T03:01:54;100311.75;;;5.18;100.00
57572;BME280;44459;43.522;24.470;2023-03-04T03:04:21;100309.09;;;5.17;100.00
57572;BME280;44459;43.522;24.470;2023-03-04T03:06:47;100317.88;;;5.19;100.00
57572;BME280;44459;43.522;24.470;2023-03-04T03:09:12;100316.97;;;5.18;100.00
57572;BME280;44459;43.522;24.470;2023-03-04T03:11:38;100316.16;;;5.19;100.00
57572;BME280;44459;43.522;24.470;2023-03-04T03:14:03;100315.22;;;5.17;100.00
57572;BME280;44459;43.522;24.470;2023-03-04T03:16:29;100317.03;;;5.20;100.00
57572;BME280;44459;43.522;24.470;2023-03-04T03:18:54;100317.13;;;5.23;100.00
57572;BME280;44459;43.522;24.470;2023-03-04T03:21:20;100318.00;;;5.23;100.00
57572;BME280;44459;43.522;24.470;2023-03-04T03:23:45;100319.00;;;5.27;100.00
57572;BME280;44459;43.522;24.470;2023-03-04T03:26:11;100314.66;;;5.27;100.00
57572;BME280;44459;43.522;24.470;2023-03-04T03:28:36;100312.03;;;5.27;100.00
57572;BME280;44459;43.522;24.470;2023-03-04T03:31:02;100311.13;;;5.27;100.00
57572;BME280;44459;43.522;24.470;2023-03-04T03:33:28;100312.06;;;5.29;100.00
57572;BME280;44459;43.522;24.470;2023-03-04T03:35:53;100311.16;;;5.28;100.00
57572;BME280;44459;43.522;24.470;2023-03-04T03:38:19;100316.44;;;5.30;100.00
57572;BME280;44459;43.522;24.470;2023-03-04T03:40:44;100317.38;;;5.32;100.00
57572;BME280;44459;43.522;24.470;2023-03-04T03:43:10;100319.16;;;5.33;100.00
57572;BME280;44459;43.522;24.470;2023-03-04T03:45:35;100313.91;;;5.33;100.00
57572;BME280;44459;43.522;24.470;2023-03-04T03:48:01;100313.00;;;5.31;100.00
57572;BME280;44459;43.522;24.470;2023-03-04T03:50:26;100315.69;;;5.34;100.00
57572;BME280;44459;43.522;24.470;2023-03-04T03:52:53;100319.16;;;5.33;100.00
57572;BME280;44459;43.522;24.470;2023-03-04T03:55:19;100315.63;;;5.31;100.00
57572;BME280;44459;43.522;24.470;2023-03-04T03:57:45;100317.38;;;5.32;100.00
57572;BME280;44459;43.522;24.470;2023-03-04T04:00:11;100307.72;;;5.29;100.00
57572;BME280;44459;43.522;24.470;2023-03-04T04:02:37;100311.22;;;5.30;100.00
57572;BME280;44459;43.522;24.470;2023-03-04T04:05:03;100315.50;;;5.28;100.00
57572;BME280;44459;43.522;24.470;2023-03-04T04:07:28;100309.34;;;5.26;100.00
57572;BME280;44459;43.522;24.470;2023-03-04T04:09:54;100309.34;;;5.26;100.00
57572;BME280;44459;43.522;24.470;2023-03-04T04:12:19;100314.59;;;5.26;100.00
57572;BME280;44459;43.522;24.470;2023-03-04T04:14:45;100311.88;;;5.23;100.00
57572;BME280;44459;43.522;24.470;2023-03-04T04:17:11;100315.41;;;5.23;100.00
57572;BME280;44459;43.522;24.470;2023-03-04T04:19:38;100310.91;;;5.19;100.00
57572;BME280;44459;43.522;24.470;2023-03-04T04:22:05;100315.22;;;5.17;100.00
57572;BME280;44459;43.522;24.470;2023-03-04T04:24:31;100315.97;;;5.13;100.00
57572;BME280;44459;43.522;24.470;2023-03-04T04:26:57;100304.53;;;5.10;100.00
57572;BME280;44459;43.522;24.470;2023-03-04T04:29:22;100304.53;;;5.10;100.00
57572;BME280;44459;43.522;24.470;2023-03-04T04:31:48;100313.22;;;5.08;100.00
57572;BME280;44459;43.522;24.470;2023-03-04T04:34:13;100306.94;;;5.03;100.00
57572;BME280;44459;43.522;24.470;2023-03-04T04:36:39;100308.66;;;5.01;100.00
57572;BME280;44459;43.522;24.470;2023-03-04T04:39:04;100305.94;;;4.98;100.00
57572;BME280;44459;43.522;24.470;2023-03-04T04:41:35;100303.28;;;4.97;100.00
57572;BME280;44459;43.522;24.470;2023-03-04T04:44:00;100299.66;;;4.92;100.00
57572;BME280;44459;43.522;24.470;2023-03-04T04:46:26;100310.91;;;4.89;100.00
57572;BME280;44459;43.522;24.470;2023-03-04T04:48:51;100305.56;;;4.86;100.00
57572;BME280;44459;43.522;24.470;2023-03-04T04:51:17;100300.22;;;4.82;100.00
57572;BME280;44459;43.522;24.470;2023-03-04T04:53:42;100300.13;;;4.79;100.00
57572;BME280;44459;43.522;24.470;2023-03-04T04:56:17;100307.84;;;4.76;100.00
57572;BME280;44459;43.522;24.470;2023-03-04T04:58:44;100313.88;;;4.73;100.00
57572;BME280;44459;43.522;24.470;2023-03-04T05:01:10;100305.97;;;4.70;100.00
57572;BME280;44459;43.522;24.470;2023-03-04T05:03:36;100304.16;;;4.68;100.00
57572;BME280;44459;43.522;24.470;2023-03-04T05:06:03;100307.50;;;4.64;100.00
57572;BME280;44459;43.522;24.470;2023-03-04T05:08:29;100312.63;;;4.61;100.00
57572;BME280;44459;43.522;24.470;2023-03-04T05:10:55;100305.47;;;4.55;100.00
57572;BME280;44459;43.522;24.470;2023-03-04T05:13:20;100304.47;;;4.50;100.00
57572;BME280;44459;43.522;24.470;2023-03-04T05:15:46;100307.72;;;4.43;100.00
57572;BME280;44459;43.522;24.470;2023-03-04T05:18:12;100323.41;;;4.43;100.00
57572;BME280;44459;43.522;24.470;2023-03-04T05:20:37;100319.75;;;4.38;100.00
57572;BME280;44459;43.522;24.470;2023-03-04T05:23:03;100323.22;;;4.37;100.00
57572;BME280;44459;43.522;24.470;2023-03-04T05:25:28;100319.56;;;4.32;100.00
57572;BME280;44459;43.522;24.470;2023-03-04T05:27:54;100325.75;;;4.34;100.00
57572;BME280;44459;43.522;24.470;2023-03-04T05:30:19;100332.69;;;4.33;100.00
57572;BME280;44459;43.522;24.470;2023-03-04T05:32:45;100337.00;;;4.33;100.00
57572;BME280;44459;43.522;24.470;2023-03-04T05:35:10;100340.47;;;4.32;100.00
57572;BME280;44459;43.522;24.470;2023-03-04T05:37:36;100344.03;;;4.34;100.00
57572;BME280;44459;43.522;24.470;2023-03-04T05:40:01;100339.75;;;4.37;100.00
57572;BME280;44459;43.522;24.470;2023-03-04T05:42:27;100340.72;;;4.39;100.00
57572;BME280;44459;43.522;24.470;2023-03-04T05:44:52;100343.47;;;4.44;100.00
57572;BME280;44459;43.522;24.470;2023-03-04T05:47:18;100343.59;;;4.48;100.00
57572;BME280;44459;43.522;24.470;2023-03-04T05:49:43;100339.44;;;4.53;100.00
57572;BME280;44459;43.522;24.470;2023-03-04T05:52:09;100348.25;;;4.57;100.00
57572;BME280;44459;43.522;24.470;2023-03-04T05:54:35;100350.91;;;4.58;100.00
57572;BME280;44459;43.522;24.470;2023-03-04T05:57:00;100350.03;;;4.58;100.00
57572;BME280;44459;43.522;24.470;2023-03-04T05:59:27;100353.09;;;4.72;100.00
57572;BME280;44459;43.522;24.470;2023-03-04T06:01:52;100347.28;;;4.82;100.00
57572;BME280;44459;43.522;24.470;2023-03-04T06:04:18;100351.97;;;4.92;100.00
57572;BME280;44459;43.522;24.470;2023-03-04T06:06:43;100367.09;;;5.02;100.00
57572;BME280;44459;43.522;24.470;2023-03-04T06:09:12;100362.97;;;5.10;100.00
57572;BME280;44459;43.522;24.470;2023-03-04T06:11:38;100369.38;;;5.20;100.00
57572;BME280;44459;43.522;24.470;2023-03-04T06:14:04;100378.91;;;5.47;100.00
57572;BME280;44459;43.522;24.470;2023-03-04T06:16:29;100373.28;;;5.95;100.00
57572;BME280;44459;43.522;24.470;2023-03-04T06:18:55;100377.22;;;6.46;100.00
57572;BME280;44459;43.522;24.470;2023-03-04T06:21:20;100377.66;;;7.00;100.00
57572;BME280;44459;43.522;24.470;2023-03-04T06:23:46;100378.75;;;7.52;100.00
57572;BME280;44459;43.522;24.470;2023-03-04T06:26:11;100389.13;;;7.88;100.00
57572;BME280;44459;43.522;24.470;2023-03-04T06:28:40;100381.22;;;8.34;99.90
57572;BME280;44459;43.522;24.470;2023-03-04T06:31:06;100387.28;;;8.81;96.98
57572;BME280;44459;43.522;24.470;2023-03-04T06:33:32;100381.81;;;9.28;94.86
57572;BME280;44459;43.522;24.470;2023-03-04T06:35:57;100384.09;;;9.68;90.96
57572;BME280;44459;43.522;24.470;2023-03-04T06:38:24;100384.69;;;10.20;87.79
57572;BME280;44459;43.522;24.470;2023-03-04T06:40:49;100389.38;;;10.52;86.15
57572;BME280;44459;43.522;24.470;2023-03-04T06:43:15;100378.09;;;10.70;83.73
57572;BME280;44459;43.522;24.470;2023-03-04T06:45:40;100388.97;;;11.09;82.08
57572;BME280;44459;43.522;24.470;2023-03-04T06:48:06;100383.81;;;11.31;80.45
57572;BME280;44459;43.522;24.470;2023-03-04T06:50:31;100387.50;;;11.66;76.63
57572;BME280;44459;43.522;24.470;2023-03-04T06:52:56;100377.94;;;12.00;77.06
57572;BME280;44459;43.522;24.470;2023-03-04T06:55:22;100379.78;;;12.31;71.55
57572;BME280;44459;43.522;24.470;2023-03-04T06:57:48;100374.41;;;12.11;70.41
57572;BME280;44459;43.522;24.470;2023-03-04T07:00:14;100379.72;;;12.16;69.48
57572;BME280;44459;43.522;24.470;2023-03-04T07:02:39;100375.25;;;11.83;70.51
57572;BME280;44459;43.522;24.470;2023-03-04T07:05:06;100378.78;;;11.91;70.26
57572;BME280;44459;43.522;24.470;2023-03-04T07:07:32;100376.19;;;12.00;70.75
57572;BME280;44459;43.522;24.470;2023-03-04T07:09:57;100378.00;;;12.50;68.69
57572;BME280;44459;43.522;24.470;2023-03-04T07:12:23;100374.50;;;12.61;68.18
57572;BME280;44459;43.522;24.470;2023-03-04T07:14:48;100363.00;;;12.61;68.27
57572;BME280;44459;43.522;24.470;2023-03-04T07:17:14;100365.66;;;12.67;68.25
57572;BME280;44459;43.522;24.470;2023-03-04T07:19:39;100364.75;;;12.53;68.92
57572;BME280;44459;43.522;24.470;2023-03-04T07:22:06;100371.81;;;13.04;67.96
57572;BME280;44459;43.522;24.470;2023-03-04T07:24:31;100370.06;;;12.80;65.20
57572;BME280;44459;43.522;24.470;2023-03-04T07:26:57;100367.44;;;12.48;65.63
57572;BME280;44459;43.522;24.470;2023-03-04T07:29:22;100373.59;;;12.40;67.09
57572;BME280;44459;43.522;24.470;2023-03-04T07:31:48;100366.56;;;12.63;67.71
57572;BME280;44459;43.522;24.470;2023-03-04T07:34:14;100374.50;;;12.87;65.28
57572;BME280;44459;43.522;24.470;2023-03-04T07:36:40;100365.59;;;13.29;64.28
57572;BME280;44459;43.522;24.470;2023-03-04T07:39:06;100356.81;;;13.01;65.13
57572;BME280;44459;43.522;24.470;2023-03-04T07:41:32;100366.50;;;13.04;64.30
57572;BME280;44459;43.522;24.470;2023-03-04T07:44:01;100360.34;;;13.09;63.88
57572;BME280;44459;43.522;24.470;2023-03-04T07:46:27;100356.56;;;13.76;62.71
57572;BME280;44459;43.522;24.470;2023-03-04T07:48:54;100365.56;;;13.43;64.38
57572;BME280;44459;43.522;24.470;2023-03-04T07:51:22;100355.56;;;13.99;60.98
57572;BME280;44459;43.522;24.470;2023-03-04T07:53:50;100361.06;;;13.63;62.33
57572;BME280;44459;43.522;24.470;2023-03-04T07:56:22;100353.03;;;13.75;61.04
57572;BME280;44459;43.522;24.470;2023-03-04T07:58:48;100345.59;;;14.32;60.00
57572;BME280;44459;43.522;24.470;2023-03-04T08:01:19;100356.09;;;14.53;58.74
57572;BME280;44459;43.522;24.470;2023-03-04T08:03:45;100356.34;;;15.22;58.16
57572;BME280;44459;43.522;24.470;2023-03-04T08:06:13;100361.31;;;15.53;55.79
57572;BME280;44459;43.522;24.470;2023-03-04T08:08:39;100362.00;;;15.69;54.70
57572;BME280;44459;43.522;24.470;2023-03-04T08:11:06;100360.56;;;15.39;55.09
57572;BME280;44459;43.522;24.470;2023-03-04T08:13:32;100360.28;;;14.80;57.25
57572;BME280;44459;43.522;24.470;2023-03-04T08:15:57;100345.00;;;15.06;58.26
57572;BME280;44459;43.522;24.470;2023-03-04T08:18:22;100347.84;;;15.67;56.38
57572;BME280;44459;43.522;24.470;2023-03-04T08:20:48;100345.03;;;15.01;58.74
57572;BME280;44459;43.522;24.470;2023-03-04T08:23:13;100344.69;;;15.33;56.56
57572;BME280;44459;43.522;24.470;2023-03-04T08:25:40;100349.31;;;15.16;57.54
57572;BME280;44459;43.522;24.470;2023-03-04T08:28:08;100344.97;;;13.93;62.15
57572;BME280;44459;43.522;24.470;2023-03-04T08:30:34;100349.41;;;13.88;61.92
57572;BME280;44459;43.522;24.470;2023-03-04T08:33:01;100339.44;;;14.28;61.33
57572;BME280;44459;43.522;24.470;2023-03-04T08:35:27;100347.41;;;14.28;61.64
57572;BME280;44459;43.522;24.470;2023-03-04T08:37:52;100334.25;;;15.17;58.31
57572;BME280;44459;43.522;24.470;2023-03-04T08:40:18;100335.13;;;15.16;57.61
57572;BME280;44459;43.522;24.470;2023-03-04T08:42:43;100329.16;;;13.72;63.11
57572;BME280;44459;43.522;24.470;2023-03-04T08:45:09;100332.97;;;12.20;67.32
57572;BME280;44459;43.522;24.470;2023-03-04T08:47:35;100330.88;;;11.19;73.29
57572;BME280;44459;43.522;24.470;2023-03-04T08:50:00;100335.16;;;10.95;76.25
57572;BME280;44459;43.522;24.470;2023-03-04T08:52:28;100327.94;;;10.69;78.13
57572;BME280;44459;43.522;24.470;2023-03-04T08:54:53;100327.84;;;10.55;79.63
57572;BME280;44459;43.522;24.470;2023-03-04T08:57:18;100328.53;;;10.33;79.40
57572;BME280;44459;43.522;24.470;2023-03-04T08:59:44;100323.00;;;10.08;81.89
57572;BME280;44459;43.522;24.470;2023-03-04T09:02:09;100324.91;;;10.20;81.35
57572;BME280;44459;43.522;24.470;2023-03-04T09:04:35;100319.44;;;10.03;82.49
57572;BME280;44459;43.522;24.470;2023-03-04T09:07:00;100327.13;;;9.82;80.97
57572;BME280;44459;43.522;24.470;2023-03-04T09:09:26;100321.03;;;9.89;82.95
57572;BME280;44459;43.522;24.470;2023-03-04T09:11:51;100311.44;;;9.94;83.41
57572;BME280;44459;43.522;24.470;2023-03-04T09:14:17;100319.31;;;9.91;84.49
57572;BME280;44459;43.522;24.470;2023-03-04T09:16:42;100314.78;;;9.75;87.07
57572;BME280;44459;43.522;24.470;2023-03-04T09:19:08;100310.47;;;9.85;84.90
57572;BME280;44459;43.522;24.470;2023-03-04T09:21:33;100305.91;;;9.70;85.19
57572;BME280;44459;43.522;24.470;2023-03-04T09:23:58;100307.59;;;9.65;85.34
57572;BME280;44459;43.522;24.470;2023-03-04T09:26:25;100307.56;;;9.60;87.41
57572;BME280;44459;43.522;24.470;2023-03-04T09:28:54;100300.59;;;9.66;84.97
57572;BME280;44459;43.522;24.470;2023-03-04T09:31:20;100303.34;;;9.76;83.71
57572;BME280;44459;43.522;24.470;2023-03-04T09:33:46;100291.97;;;9.79;83.00
57572;BME280;44459;43.522;24.470;2023-03-04T09:36:13;100299.94;;;9.89;80.91
57572;BME280;44459;43.522;24.470;2023-03-04T09:38:39;100289.38;;;9.86;83.10
57572;BME280;44459;43.522;24.470;2023-03-04T09:41:19;100293.84;;;9.92;81.15
57572;BME280;44459;43.522;24.470;2023-03-04T09:43:47;100281.72;;;10.12;85.87
57572;BME280;44459;43.522;24.470;2023-03-04T09:46:19;100287.06;;;10.18;81.33
57572;BME280;44459;43.522;24.470;2023-03-04T09:48:49;100282.63;;;10.14;83.17
57572;BME280;44459;43.522;24.470;2023-03-04T09:54:09;100268.72;;;10.30;82.21
57572;BME280;44459;43.522;24.470;2023-03-04T09:56:39;100270.53;;;10.42;79.97
57572;BME280;44459;43.522;24.470;2023-03-04T10:01:49;100261.03;;;10.65;81.65
57572;BME280;44459;43.522;24.470;2023-03-04T10:04:32;100264.53;;;10.64;78.24
57572;BME280;44459;43.522;24.470;2023-03-04T10:07:00;100256.53;;;10.49;78.30
57572;BME280;44459;43.522;24.470;2023-03-04T10:09:52;100259.06;;;10.34;78.45
57572;BME280;44459;43.522;24.470;2023-03-04T10:12:22;100253.78;;;10.31;78.64
57572;BME280;44459;43.522;24.470;2023-03-04T10:15:20;100251.22;;;10.43;78.72
57572;BME280;44459;43.522;24.470;2023-03-04T10:17:51;100238.84;;;10.39;77.76
57572;BME280;44459;43.522;24.470;2023-03-04T10:20:32;100238.88;;;10.42;78.79
57572;BME280;44459;43.522;24.470;2023-03-04T10:23:15;100234.56;;;10.51;77.14
57572;BME280;44459;43.522;24.470;2023-03-04T10:25:45;100229.31;;;10.57;80.51
57572;BME280;44459;43.522;24.470;2023-03-04T10:31:04;100223.31;;;10.86;80.34
57572;BME280;44459;43.522;24.470;2023-03-04T10:33:35;100215.38;;;10.86;80.31
57572;BME280;44459;43.522;24.470;2023-03-04T10:39:23;100207.53;;;10.99;77.36
57572;BME280;44459;43.522;24.470;2023-03-04T10:42:03;100196.97;;;10.99;76.88
57572;BME280;44459;43.522;24.470;2023-03-04T10:44:31;100200.50;;;11.09;78.55
57572;BME280;44459;43.522;24.470;2023-03-04T10:46:58;100190.81;;;11.11;77.96
57572;BME280;44459;43.522;24.470;2023-03-04T10:49:24;100193.47;;;11.13;75.46
57572;BME280;44459;43.522;24.470;2023-03-04T10:55:41;100178.53;;;11.25;77.87
57572;BME280;44459;43.522;24.470;2023-03-04T10:58:12;100176.78;;;11.36;74.75
57572;BME280;44459;43.522;24.470;2023-03-04T11:00:39;100179.41;;;11.32;74.17
57572;BME280;44459;43.522;24.470;2023-03-04T11:06:20;100169.75;;;11.46;76.62
57572;BME280;44459;43.522;24.470;2023-03-04T11:08:58;100156.56;;;11.52;76.58
57572;BME280;44459;43.522;24.470;2023-03-04T11:11:28;100145.97;;;11.41;74.55
57572;BME280;44459;43.522;24.470;2023-03-04T11:13:58;100144.19;;;11.39;75.11
57572;BME280;44459;43.522;24.470;2023-03-04T11:16:26;100138.94;;;11.51;75.72
57572;BME280;44459;43.522;24.470;2023-03-04T11:19:00;100134.53;;;11.59;73.26
57572;BME280;44459;43.522;24.470;2023-03-04T11:21:30;100136.28;;;11.65;74.46
57572;BME280;44459;43.522;24.470;2023-03-04T11:24:00;100132.78;;;11.66;74.40
57572;BME280;44459;43.522;24.470;2023-03-04T11:26:32;100126.63;;;11.70;74.02
57572;BME280;44459;43.522;24.470;2023-03-04T11:29:19;100131.03;;;11.77;72.89
57572;BME280;44459;43.522;24.470;2023-03-04T11:31:59;100116.88;;;11.70;71.61
57572;BME280;44459;43.522;24.470;2023-03-04T11:37:20;100120.47;;;11.72;72.90
57572;BME280;44459;43.522;24.470;2023-03-04T11:39:56;100115.16;;;11.81;72.50
57572;BME280;44459;43.522;24.470;2023-03-04T11:44:54;100101.03;;;11.99;74.31
57572;BME280;44459;43.522;24.470;2023-03-04T11:50:29;100093.09;;;11.91;73.55
57572;BME280;44459;43.522;24.470;2023-03-04T11:55:39;100086.97;;;11.83;73.39
57572;BME280;44459;43.522;24.470;2023-03-04T12:01:14;100094.00;;;11.90;70.31
57572;BME280;44459;43.522;24.470;2023-03-04T12:04:12;100086.91;;;12.04;71.44
57572;BME280;44459;43.522;24.470;2023-03-04T12:14:47;100078.03;;;12.31;72.29
57572;BME280;44459;43.522;24.470;2023-03-04T12:35:46;100059.59;;;11.96;70.82
57572;BME280;44459;43.522;24.470;2023-03-04T12:41:17;100047.19;;;12.14;69.77
57572;BME280;44459;43.522;24.470;2023-03-04T12:49:14;100041.03;;;12.13;71.32
57572;BME280;44459;43.522;24.470;2023-03-04T12:54:32;100025.00;;;12.48;71.48
57572;BME280;44459;43.522;24.470;2023-03-04T12:57:08;100015.25;;;12.50;70.76
57572;BME280;44459;43.522;24.470;2023-03-04T13:07:42;100006.53;;;12.33;71.20
57572;BME280;44459;43.522;24.470;2023-03-04T13:10:14;100000.34;;;12.38;70.23
57572;BME280;44459;43.522;24.470;2023-03-04T13:12:50;99995.91;;;12.40;73.18
57572;BME280;44459;43.522;24.470;2023-03-04T13:21:23;99988.75;;;12.59;71.08
57572;BME280;44459;43.522;24.470;2023-03-04T13:23:50;99981.63;;;12.70;70.14
57572;BME280;44459;43.522;24.470;2023-03-04T13:26:19;99981.53;;;12.82;68.85
57572;BME280;44459;43.522;24.470;2023-03-04T13:28:50;99986.81;;;12.81;67.75
57572;BME280;44459;43.522;24.470;2023-03-04T13:31:19;99986.00;;;12.71;67.50
57572;BME280;44459;43.522;24.470;2023-03-04T13:33:50;99977.16;;;12.75;68.73
57572;BME280;44459;43.522;24.470;2023-03-04T13:36:53;99980.00;;;12.49;70.19
57572;BME280;44459;43.522;24.470;2023-03-04T13:41:52;99979.28;;;12.17;71.77
57572;BME280;44459;43.522;24.470;2023-03-04T13:44:57;99974.88;;;12.11;72.58
57572;BME280;44459;43.522;24.470;2023-03-04T13:47:38;99974.91;;;12.05;72.73
57572;BME280;44459;43.522;24.470;2023-03-04T13:50:37;99972.25;;;12.05;71.45
57572;BME280;44459;43.522;24.470;2023-03-04T13:53:31;99962.56;;;12.07;71.29
57572;BME280;44459;43.522;24.470;2023-03-04T13:56:04;99964.28;;;12.13;70.09
57572;BME280;44459;43.522;24.470;2023-03-04T13:58:31;99958.97;;;12.21;70.47
57572;BME280;44459;43.522;24.470;2023-03-04T14:00:57;99961.69;;;12.05;71.92
57572;BME280;44459;43.522;24.470;2023-03-04T14:03:29;99963.41;;;12.08;73.44
57572;BME280;44459;43.522;24.470;2023-03-04T14:06:16;99951.06;;;12.08;70.53
57572;BME280;44459;43.522;24.470;2023-03-04T14:08:43;99944.94;;;12.02;71.30
57572;BME280;44459;43.522;24.470;2023-03-04T14:11:12;99945.88;;;11.90;70.88
57572;BME280;44459;43.522;24.470;2023-03-04T14:13:38;99948.50;;;11.92;70.96